sensor_id;sensor_type;location;lat;lon;timestamp;P1;durP1;ratioP1;P2;durP2;ratioP2
79702;SDS011;69172;52.352;5.006;2023-07-30T00:00:37;19.90;;;3.78;;
79702;SDS011;69172;52.352;5.006;2023-07-30T00:03:02;13.27;;;4.30;;
79702;SDS011;69172;52.352;5.006;2023-07-30T00:05:27;26.63;;;4.30;;
79702;SDS011;69172;52.352;5.006;2023-07-30T00:07:53;19.52;;;4.30;;
79702;SDS011;69172;52.352;5.006;2023-07-30T00:10:19;18.55;;;3.38;;
79702;SDS011;69172;52.352;5.006;2023-07-30T00:12:45;16.33;;;3.95;;
79702;SDS011;69172;52.352;5.006;2023-07-30T00:15:10;22.70;;;3.83;;
79702;SDS011;69172;52.352;5.006;2023-07-30T00:17:36;20.75;;;4.25;;
79702;SDS011;69172;52.352;5.006;2023-07-30T00:20:01;28.42;;;5.40;;
79702;SDS011;69172;52.352;5.006;2023-07-30T00:22:27;24.13;;;4.13;;
79702;SDS011;69172;52.352;5.006;2023-07-30T00:24:53;21.30;;;3.90;;
79702;SDS011;69172;52.352;5.006;2023-07-30T00:27:18;12.95;;;3.75;;
79702;SDS011;69172;52.352;5.006;2023-07-30T00:29:45;24.33;;;4.60;;
79702;SDS011;69172;52.352;5.006;2023-07-30T00:32:10;22.23;;;4.82;;
79702;SDS011;69172;52.352;5.006;2023-07-30T00:34:36;16.52;;;4.32;;
79702;SDS011;69172;52.352;5.006;2023-07-30T00:37:01;21.80;;;4.70;;
79702;SDS011;69172;52.352;5.006;2023-07-30T00:39:27;18.65;;;4.22;;
79702;SDS011;69172;52.352;5.006;2023-07-30T00:41:53;24.27;;;4.88;;
79702;SDS011;69172;52.352;5.006;2023-07-30T00:44:18;22.20;;;4.90;;
79702;SDS011;69172;52.352;5.006;2023-07-30T00:46:44;21.27;;;4.75;;
79702;SDS011;69172;52.352;5.006;2023-07-30T00:49:09;15.35;;;4.18;;
79702;SDS011;69172;52.352;5.006;2023-07-30T00:51:35;19.38;;;4.35;;
79702;SDS011;69172;52.352;5.006;2023-07-30T00:54:00;19.10;;;4.10;;
79702;SDS011;69172;52.352;5.006;2023-07-30T00:56:26;15.75;;;3.45;;
79702;SDS011;69172;52.352;5.006;2023-07-30T00:58:52;22.88;;;4.35;;
79702;SDS011;69172;52.352;5.006;2023-07-30T01:01:18;22.42;;;4.95;;
79702;SDS011;69172;52.352;5.006;2023-07-30T01:03:43;19.08;;;4.30;;
79702;SDS011;69172;52.352;5.006;2023-07-30T01:06:09;18.05;;;3.97;;
79702;SDS011;69172;52.352;5.006;2023-07-30T01:08:35;24.65;;;5.30;;
79702;SDS011;69172;52.352;5.006;2023-07-30T01:11:01;20.20;;;4.72;;
79702;SDS011;69172;52.352;5.006;2023-07-30T01:13:29;23.92;;;4.65;;
79702;SDS011;69172;52.352;5.006;2023-07-30T01:15:58;19.42;;;4.32;;
79702;SDS011;69172;52.352;5.006;2023-07-30T01:18:24;21.63;;;4.55;;
79702;SDS011;69172;52.352;5.006;2023-07-30T01:20:52;19.85;;;3.95;;
79702;SDS011;69172;52.352;5.006;2023-07-30T01:23:18;18.63;;;3.90;;
79702;SDS011;69172;52.352;5.006;2023-07-30T01:25:43;23.45;;;4.88;;
79702;SDS011;69172;52.352;5.006;2023-07-30T01:28:11;29.40;;;4.85;;
79702;SDS011;69172;52.352;5.006;2023-07-30T01:30:42;22.73;;;4.32;;
79702;SDS011;69172;52.352;5.006;2023-07-30T01:33:09;20.20;;;3.83;;
79702;SDS011;69172;52.352;5.006;2023-07-30T01:35:41;28.73;;;5.57;;
79702;SDS011;69172;52.352;5.006;2023-07-30T01:38:19;27.67;;;4.30;;
79702;SDS011;69172;52.352;5.006;2023-07-30T01:40:44;23.92;;;4.70;;
79702;SDS011;69172;52.352;5.006;2023-07-30T01:43:10;21.55;;;4.43;;
79702;SDS011;69172;52.352;5.006;2023-07-30T01:48:28;27.17;;;4.28;;
79702;SDS011;69172;52.352;5.006;2023-07-30T01:51:03;21.65;;;4.45;;
79702;SDS011;69172;52.352;5.006;2023-07-30T01:53:28;22.55;;;4.10;;
79702;SDS011;69172;52.352;5.006;2023-07-30T01:55:59;20.92;;;4.63;;
79702;SDS011;69172;52.352;5.006;2023-07-30T01:58:25;24.95;;;5.00;;
79702;SDS011;69172;52.352;5.006;2023-07-30T02:00:50;27.45;;;5.00;;
79702;SDS011;69172;52.352;5.006;2023-07-30T02:03:17;27.48;;;5.03;;
79702;SDS011;69172;52.352;5.006;2023-07-30T02:05:42;24.70;;;5.25;;
79702;SDS011;69172;52.352;5.006;2023-07-30T02:08:08;22.98;;;5.50;;
79702;SDS011;69172;52.352;5.006;2023-07-30T02:10:35;25.92;;;4.88;;
79702;SDS011;69172;52.352;5.006;2023-07-30T02:13:00;20.85;;;4.32;;
79702;SDS011;69172;52.352;5.006;2023-07-30T02:15:26;20.85;;;5.13;;
79702;SDS011;69172;52.352;5.006;2023-07-30T02:17:51;18.80;;;4.28;;
79702;SDS011;69172;52.352;5.006;2023-07-30T02:20:18;27.98;;;5.07;;
79702;SDS011;69172;52.352;5.006;2023-07-30T02:22:43;22.27;;;4.47;;
79702;SDS011;69172;52.352;5.006;2023-07-30T02:25:08;23.10;;;4.15;;
79702;SDS011;69172;52.352;5.006;2023-07-30T02:27:34;20.52;;;4.35;;
79702;SDS011;69172;52.352;5.006;2023-07-30T02:29:59;23.38;;;4.72;;
79702;SDS011;69172;52.352;5.006;2023-07-30T02:32:24;21.48;;;4.05;;
79702;SDS011;69172;52.352;5.006;2023-07-30T02:34:50;23.58;;;4.43;;
79702;SDS011;69172;52.352;5.006;2023-07-30T02:37:15;23.02;;;4.07;;
79702;SDS011;69172;52.352;5.006;2023-07-30T02:39:41;22.27;;;4.15;;
79702;SDS011;69172;52.352;5.006;2023-07-30T02:42:06;19.67;;;4.05;;
79702;SDS011;69172;52.352;5.006;2023-07-30T02:44:31;27.73;;;4.70;;
79702;SDS011;69172;52.352;5.006;2023-07-30T02:46:57;24.15;;;5.05;;
79702;SDS011;69172;52.352;5.006;2023-07-30T02:49:22;20.23;;;4.03;;
79702;SDS011;69172;52.352;5.006;2023-07-30T02:51:48;23.13;;;4.20;;
79702;SDS011;69172;52.352;5.006;2023-07-30T02:54:14;20.60;;;4.03;;
79702;SDS011;69172;52.352;5.006;2023-07-30T02:56:41;21.08;;;5.10;;
79702;SDS011;69172;52.352;5.006;2023-07-30T02:59:08;26.33;;;4.40;;
79702;SDS011;69172;52.352;5.006;2023-07-30T03:01:34;22.65;;;4.45;;
79702;SDS011;69172;52.352;5.006;2023-07-30T03:03:59;22.45;;;4.47;;
79702;SDS011;69172;52.352;5.006;2023-07-30T03:06:26;16.67;;;3.45;;
79702;SDS011;69172;52.352;5.006;2023-07-30T03:08:51;22.75;;;4.65;;
79702;SDS011;69172;52.352;5.006;2023-07-30T03:11:16;22.02;;;4.72;;
79702;SDS011;69172;52.352;5.006;2023-07-30T03:13:42;18.55;;;3.97;;
79702;SDS011;69172;52.352;5.006;2023-07-30T03:16:07;21.63;;;3.97;;
79702;SDS011;69172;52.352;5.006;2023-07-30T03:18:33;28.15;;;4.93;;
79702;SDS011;69172;52.352;5.006;2023-07-30T03:21:01;22.15;;;4.00;;
79702;SDS011;69172;52.352;5.006;2023-07-30T03:23:28;22.00;;;4.43;;
79702;SDS011;69172;52.352;5.006;2023-07-30T03:25:53;18.30;;;4.03;;
79702;SDS011;69172;52.352;5.006;2023-07-30T03:28:18;25.15;;;4.05;;
79702;SDS011;69172;52.352;5.006;2023-07-30T03:30:45;27.77;;;4.38;;
79702;SDS011;69172;52.352;5.006;2023-07-30T03:33:10;22.88;;;3.78;;
79702;SDS011;69172;52.352;5.006;2023-07-30T03:35:36;21.65;;;3.67;;
79702;SDS011;69172;52.352;5.006;2023-07-30T03:38:01;16.73;;;3.75;;
79702;SDS011;69172;52.352;5.006;2023-07-30T03:40:26;20.33;;;3.47;;
79702;SDS011;69172;52.352;5.006;2023-07-30T03:42:53;22.83;;;4.13;;
79702;SDS011;69172;52.352;5.006;2023-07-30T03:45:18;19.20;;;3.35;;
79702;SDS011;69172;52.352;5.006;2023-07-30T03:47:44;21.15;;;3.28;;
79702;SDS011;69172;52.352;5.006;2023-07-30T03:50:09;26.63;;;4.43;;
79702;SDS011;69172;52.352;5.006;2023-07-30T03:52:36;19.73;;;3.22;;
79702;SDS011;69172;52.352;5.006;2023-07-30T03:55:01;21.90;;;3.65;;
79702;SDS011;69172;52.352;5.006;2023-07-30T03:57:26;19.70;;;3.13;;
79702;SDS011;69172;52.352;5.006;2023-07-30T03:59:52;16.40;;;2.80;;
79702;SDS011;69172;52.352;5.006;2023-07-30T04:02:18;16.60;;;2.50;;
79702;SDS011;69172;52.352;5.006;2023-07-30T04:04:44;12.05;;;2.53;;
79702;SDS011;69172;52.352;5.006;2023-07-30T04:07:11;12.13;;;2.10;;
79702;SDS011;69172;52.352;5.006;2023-07-30T04:09:36;8.88;;;1.85;;
79702;SDS011;69172;52.352;5.006;2023-07-30T04:12:02;11.35;;;1.92;;
79702;SDS011;69172;52.352;5.006;2023-07-30T04:14:28;6.00;;;1.58;;
79702;SDS011;69172;52.352;5.006;2023-07-30T04:16:54;9.18;;;1.70;;
79702;SDS011;69172;52.352;5.006;2023-07-30T04:19:19;10.98;;;1.98;;
79702;SDS011;69172;52.352;5.006;2023-07-30T04:21:48;9.88;;;2.08;;
79702;SDS011;69172;52.352;5.006;2023-07-30T04:24:20;8.23;;;1.77;;
79702;SDS011;69172;52.352;5.006;2023-07-30T04:26:46;10.00;;;1.77;;
79702;SDS011;69172;52.352;5.006;2023-07-30T04:29:11;13.00;;;2.10;;
79702;SDS011;69172;52.352;5.006;2023-07-30T04:31:38;11.05;;;1.50;;
79702;SDS011;69172;52.352;5.006;2023-07-30T04:34:04;7.97;;;1.85;;
79702;SDS011;69172;52.352;5.006;2023-07-30T04:36:29;13.55;;;2.17;;
79702;SDS011;69172;52.352;5.006;2023-07-30T04:38:55;9.75;;;2.28;;
79702;SDS011;69172;52.352;5.006;2023-07-30T04:41:21;6.20;;;1.50;;
79702;SDS011;69172;52.352;5.006;2023-07-30T04:43:46;6.00;;;1.55;;
79702;SDS011;69172;52.352;5.006;2023-07-30T04:46:12;5.85;;;1.42;;
79702;SDS011;69172;52.352;5.006;2023-07-30T04:48:37;13.65;;;2.10;;
79702;SDS011;69172;52.352;5.006;2023-07-30T04:51:03;12.23;;;1.95;;
79702;SDS011;69172;52.352;5.006;2023-07-30T04:53:29;11.05;;;2.28;;
79702;SDS011;69172;52.352;5.006;2023-07-30T04:55:55;6.50;;;1.58;;
79702;SDS011;69172;52.352;5.006;2023-07-30T04:58:22;9.25;;;1.65;;
79702;SDS011;69172;52.352;5.006;2023-07-30T05:00:49;7.60;;;1.55;;
79702;SDS011;69172;52.352;5.006;2023-07-30T05:03:17;8.25;;;1.40;;
79702;SDS011;69172;52.352;5.006;2023-07-30T05:05:42;5.85;;;1.38;;
79702;SDS011;69172;52.352;5.006;2023-07-30T05:08:08;9.68;;;1.67;;
79702;SDS011;69172;52.352;5.006;2023-07-30T05:10:34;9.77;;;2.40;;
79702;SDS011;69172;52.352;5.006;2023-07-30T05:13:00;9.27;;;1.67;;
79702;SDS011;69172;52.352;5.006;2023-07-30T05:15:25;8.30;;;1.80;;
79702;SDS011;69172;52.352;5.006;2023-07-30T05:17:51;8.73;;;2.15;;
79702;SDS011;69172;52.352;5.006;2023-07-30T05:20:17;10.07;;;1.60;;
79702;SDS011;69172;52.352;5.006;2023-07-30T05:22:43;10.18;;;1.65;;
79702;SDS011;69172;52.352;5.006;2023-07-30T05:25:08;9.32;;;1.60;;
79702;SDS011;69172;52.352;5.006;2023-07-30T05:27:35;8.98;;;1.60;;
79702;SDS011;69172;52.352;5.006;2023-07-30T05:30:01;9.93;;;1.77;;
79702;SDS011;69172;52.352;5.006;2023-07-30T05:32:27;15.63;;;2.08;;
79702;SDS011;69172;52.352;5.006;2023-07-30T05:34:52;9.55;;;1.77;;
79702;SDS011;69172;52.352;5.006;2023-07-30T05:37:18;11.32;;;1.92;;
79702;SDS011;69172;52.352;5.006;2023-07-30T05:39:43;8.35;;;1.50;;
79702;SDS011;69172;52.352;5.006;2023-07-30T05:42:10;6.25;;;1.40;;
79702;SDS011;69172;52.352;5.006;2023-07-30T05:44:35;7.45;;;1.80;;
79702;SDS011;69172;52.352;5.006;2023-07-30T05:47:01;12.93;;;2.25;;
79702;SDS011;69172;52.352;5.006;2023-07-30T05:49:27;11.82;;;1.63;;
79702;SDS011;69172;52.352;5.006;2023-07-30T05:51:53;7.20;;;1.30;;
79702;SDS011;69172;52.352;5.006;2023-07-30T05:54:18;8.30;;;1.60;;
79702;SDS011;69172;52.352;5.006;2023-07-30T05:56:43;12.98;;;1.95;;
79702;SDS011;69172;52.352;5.006;2023-07-30T05:59:09;11.05;;;1.70;;
79702;SDS011;69172;52.352;5.006;2023-07-30T06:01:34;10.45;;;2.00;;
79702;SDS011;69172;52.352;5.006;2023-07-30T06:04:00;9.38;;;1.40;;
79702;SDS011;69172;52.352;5.006;2023-07-30T06:06:25;10.15;;;1.80;;
79702;SDS011;69172;52.352;5.006;2023-07-30T06:08:54;13.90;;;2.60;;
79702;SDS011;69172;52.352;5.006;2023-07-30T06:11:20;10.45;;;1.80;;
79702;SDS011;69172;52.352;5.006;2023-07-30T06:13:45;10.68;;;2.22;;
79702;SDS011;69172;52.352;5.006;2023-07-30T06:16:11;14.57;;;2.33;;
79702;SDS011;69172;52.352;5.006;2023-07-30T06:18:36;9.65;;;2.25;;
79702;SDS011;69172;52.352;5.006;2023-07-30T06:21:02;11.13;;;2.40;;
79702;SDS011;69172;52.352;5.006;2023-07-30T06:23:27;12.95;;;3.00;;
79702;SDS011;69172;52.352;5.006;2023-07-30T06:25:53;11.85;;;2.47;;
79702;SDS011;69172;52.352;5.006;2023-07-30T06:28:18;14.60;;;2.83;;
79702;SDS011;69172;52.352;5.006;2023-07-30T06:30:43;18.55;;;3.08;;
79702;SDS011;69172;52.352;5.006;2023-07-30T06:33:09;19.27;;;3.20;;
79702;SDS011;69172;52.352;5.006;2023-07-30T06:35:34;16.15;;;3.25;;
79702;SDS011;69172;52.352;5.006;2023-07-30T06:38:00;18.10;;;3.60;;
79702;SDS011;69172;52.352;5.006;2023-07-30T06:40:25;19.58;;;3.67;;
79702;SDS011;69172;52.352;5.006;2023-07-30T06:42:51;17.45;;;3.70;;
79702;SDS011;69172;52.352;5.006;2023-07-30T06:45:17;18.77;;;3.72;;
79702;SDS011;69172;52.352;5.006;2023-07-30T06:47:43;23.85;;;3.92;;
79702;SDS011;69172;52.352;5.006;2023-07-30T06:50:09;19.73;;;4.30;;
79702;SDS011;69172;52.352;5.006;2023-07-30T06:52:35;20.13;;;4.55;;
79702;SDS011;69172;52.352;5.006;2023-07-30T06:55:01;18.38;;;3.20;;
79702;SDS011;69172;52.352;5.006;2023-07-30T06:57:28;18.60;;;3.80;;
79702;SDS011;69172;52.352;5.006;2023-07-30T06:59:54;21.17;;;4.25;;
79702;SDS011;69172;52.352;5.006;2023-07-30T07:02:19;21.05;;;4.03;;
79702;SDS011;69172;52.352;5.006;2023-07-30T07:04:45;15.15;;;3.70;;
79702;SDS011;69172;52.352;5.006;2023-07-30T07:07:10;18.50;;;4.30;;
79702;SDS011;69172;52.352;5.006;2023-07-30T07:09:35;20.98;;;4.15;;
79702;SDS011;69172;52.352;5.006;2023-07-30T07:12:01;19.52;;;3.92;;
79702;SDS011;69172;52.352;5.006;2023-07-30T07:14:26;17.98;;;3.80;;
79702;SDS011;69172;52.352;5.006;2023-07-30T07:16:53;22.30;;;4.18;;
79702;SDS011;69172;52.352;5.006;2023-07-30T07:19:21;24.95;;;3.22;;
79702;SDS011;69172;52.352;5.006;2023-07-30T07:21:46;16.83;;;3.53;;
79702;SDS011;69172;52.352;5.006;2023-07-30T07:24:12;13.93;;;3.72;;
79702;SDS011;69172;52.352;5.006;2023-07-30T07:26:39;18.65;;;3.95;;
79702;SDS011;69172;52.352;5.006;2023-07-30T07:29:06;17.50;;;3.83;;
79702;SDS011;69172;52.352;5.006;2023-07-30T07:31:32;13.63;;;3.10;;
79702;SDS011;69172;52.352;5.006;2023-07-30T07:33:57;15.88;;;3.22;;
79702;SDS011;69172;52.352;5.006;2023-07-30T07:36:23;17.67;;;3.22;;
79702;SDS011;69172;52.352;5.006;2023-07-30T07:38:48;17.50;;;3.60;;
79702;SDS011;69172;52.352;5.006;2023-07-30T07:41:14;16.63;;;4.00;;
79702;SDS011;69172;52.352;5.006;2023-07-30T07:43:43;17.83;;;3.70;;
79702;SDS011;69172;52.352;5.006;2023-07-30T07:46:09;18.67;;;3.78;;
79702;SDS011;69172;52.352;5.006;2023-07-30T07:48:41;15.70;;;4.10;;
79702;SDS011;69172;52.352;5.006;2023-07-30T07:51:08;23.58;;;3.78;;
79702;SDS011;69172;52.352;5.006;2023-07-30T07:53:35;19.92;;;3.47;;
79702;SDS011;69172;52.352;5.006;2023-07-30T07:56:01;17.00;;;3.88;;
79702;SDS011;69172;52.352;5.006;2023-07-30T07:58:27;15.70;;;3.67;;
79702;SDS011;69172;52.352;5.006;2023-07-30T08:00:56;11.35;;;2.47;;
79702;SDS011;69172;52.352;5.006;2023-07-30T08:03:23;15.73;;;2.58;;
79702;SDS011;69172;52.352;5.006;2023-07-30T08:05:49;15.75;;;2.33;;
79702;SDS011;69172;52.352;5.006;2023-07-30T08:08:15;13.07;;;2.00;;
79702;SDS011;69172;52.352;5.006;2023-07-30T08:10:40;11.48;;;1.70;;
79702;SDS011;69172;52.352;5.006;2023-07-30T08:13:15;11.90;;;1.85;;
79702;SDS011;69172;52.352;5.006;2023-07-30T08:15:48;13.77;;;2.35;;
79702;SDS011;69172;52.352;5.006;2023-07-30T08:18:13;10.80;;;2.50;;
79702;SDS011;69172;52.352;5.006;2023-07-30T08:20:38;12.55;;;2.20;;
79702;SDS011;69172;52.352;5.006;2023-07-30T08:23:05;11.00;;;1.90;;
79702;SDS011;69172;52.352;5.006;2023-07-30T08:25:30;9.63;;;1.90;;
79702;SDS011;69172;52.352;5.006;2023-07-30T08:27:55;9.55;;;1.77;;
79702;SDS011;69172;52.352;5.006;2023-07-30T08:30:21;9.82;;;2.17;;
79702;SDS011;69172;52.352;5.006;2023-07-30T08:32:52;12.15;;;1.90;;
79702;SDS011;69172;52.352;5.006;2023-07-30T08:35:18;11.18;;;1.65;;
79702;SDS011;69172;52.352;5.006;2023-07-30T08:37:43;12.50;;;2.60;;
79702;SDS011;69172;52.352;5.006;2023-07-30T08:40:09;9.95;;;2.00;;
79702;SDS011;69172;52.352;5.006;2023-07-30T08:42:35;8.10;;;1.50;;
79702;SDS011;69172;52.352;5.006;2023-07-30T08:45:00;8.27;;;2.00;;
79702;SDS011;69172;52.352;5.006;2023-07-30T08:47:25;12.15;;;2.58;;
79702;SDS011;69172;52.352;5.006;2023-07-30T08:49:51;9.52;;;2.17;;
79702;SDS011;69172;52.352;5.006;2023-07-30T08:52:16;13.75;;;1.98;;
79702;SDS011;69172;52.352;5.006;2023-07-30T08:54:42;15.07;;;2.55;;
79702;SDS011;69172;52.352;5.006;2023-07-30T08:57:11;9.75;;;1.80;;
79702;SDS011;69172;52.352;5.006;2023-07-30T08:59:39;13.82;;;2.50;;
79702;SDS011;69172;52.352;5.006;2023-07-30T09:02:17;12.98;;;2.22;;
79702;SDS011;69172;52.352;5.006;2023-07-30T09:04:49;11.82;;;2.47;;
79702;SDS011;69172;52.352;5.006;2023-07-30T09:07:21;13.63;;;2.60;;
79702;SDS011;69172;52.352;5.006;2023-07-30T09:09:49;12.98;;;2.78;;
79702;SDS011;69172;52.352;5.006;2023-07-30T09:12:15;11.75;;;2.28;;
79702;SDS011;69172;52.352;5.006;2023-07-30T09:14:41;12.77;;;2.22;;
79702;SDS011;69172;52.352;5.006;2023-07-30T09:17:10;9.90;;;2.22;;
79702;SDS011;69172;52.352;5.006;2023-07-30T09:19:41;14.63;;;2.10;;
79702;SDS011;69172;52.352;5.006;2023-07-30T09:22:06;10.95;;;2.00;;
79702;SDS011;69172;52.352;5.006;2023-07-30T09:24:32;12.43;;;2.13;;
79702;SDS011;69172;52.352;5.006;2023-07-30T09:26:57;11.75;;;1.92;;
79702;SDS011;69172;52.352;5.006;2023-07-30T09:29:27;14.57;;;2.80;;
79702;SDS011;69172;52.352;5.006;2023-07-30T09:31:53;12.02;;;2.25;;
79702;SDS011;69172;52.352;5.006;2023-07-30T09:34:21;10.60;;;1.85;;
79702;SDS011;69172;52.352;5.006;2023-07-30T09:36:50;10.73;;;1.92;;
79702;SDS011;69172;52.352;5.006;2023-07-30T09:39:22;12.98;;;2.35;;
79702;SDS011;69172;52.352;5.006;2023-07-30T09:41:50;9.75;;;2.65;;
79702;SDS011;69172;52.352;5.006;2023-07-30T09:44:17;12.10;;;2.30;;
79702;SDS011;69172;52.352;5.006;2023-07-30T09:46:44;13.73;;;2.53;;
79702;SDS011;69172;52.352;5.006;2023-07-30T09:49:11;12.95;;;2.42;;
79702;SDS011;69172;52.352;5.006;2023-07-30T09:51:37;14.88;;;2.50;;
79702;SDS011;69172;52.352;5.006;2023-07-30T09:54:05;11.95;;;2.55;;
79702;SDS011;69172;52.352;5.006;2023-07-30T09:56:32;14.48;;;3.08;;
79702;SDS011;69172;52.352;5.006;2023-07-30T09:58:59;11.57;;;2.03;;
79702;SDS011;69172;52.352;5.006;2023-07-30T10:01:25;11.68;;;2.78;;
79702;SDS011;69172;52.352;5.006;2023-07-30T10:03:53;14.15;;;2.30;;
79702;SDS011;69172;52.352;5.006;2023-07-30T10:06:21;9.13;;;2.03;;
79702;SDS011;69172;52.352;5.006;2023-07-30T10:08:50;11.60;;;2.00;;
79702;SDS011;69172;52.352;5.006;2023-07-30T10:11:20;10.27;;;2.03;;
79702;SDS011;69172;52.352;5.006;2023-07-30T10:13:46;9.55;;;2.00;;
79702;SDS011;69172;52.352;5.006;2023-07-30T10:16:12;7.28;;;1.25;;
79702;SDS011;69172;52.352;5.006;2023-07-30T10:18:38;12.40;;;1.85;;
79702;SDS011;69172;52.352;5.006;2023-07-30T10:21:05;10.02;;;1.75;;
79702;SDS011;69172;52.352;5.006;2023-07-30T10:23:33;11.15;;;1.42;;
79702;SDS011;69172;52.352;5.006;2023-07-30T10:25:59;11.18;;;1.98;;
79702;SDS011;69172;52.352;5.006;2023-07-30T10:28:34;8.55;;;1.80;;
79702;SDS011;69172;52.352;5.006;2023-07-30T10:31:06;8.07;;;1.92;;
79702;SDS011;69172;52.352;5.006;2023-07-30T10:36:18;8.63;;;1.80;;
79702;SDS011;69172;52.352;5.006;2023-07-30T10:38:52;8.05;;;1.52;;
79702;SDS011;69172;52.352;5.006;2023-07-30T10:41:18;16.23;;;2.38;;
79702;SDS011;69172;52.352;5.006;2023-07-30T10:43:48;12.10;;;2.08;;
79702;SDS011;69172;52.352;5.006;2023-07-30T10:46:16;11.70;;;1.98;;
79702;SDS011;69172;52.352;5.006;2023-07-30T10:48:45;13.43;;;2.20;;
79702;SDS011;69172;52.352;5.006;2023-07-30T10:51:13;7.82;;;1.58;;
79702;SDS011;69172;52.352;5.006;2023-07-30T10:53:44;6.70;;;1.58;;
79702;SDS011;69172;52.352;5.006;2023-07-30T10:56:15;10.82;;;2.15;;
79702;SDS011;69172;52.352;5.006;2023-07-30T10:58:42;8.98;;;1.98;;
79702;SDS011;69172;52.352;5.006;2023-07-30T11:01:09;14.95;;;2.53;;
79702;SDS011;69172;52.352;5.006;2023-07-30T11:03:37;9.05;;;1.75;;
79702;SDS011;69172;52.352;5.006;2023-07-30T11:06:03;9.20;;;2.38;;
79702;SDS011;69172;52.352;5.006;2023-07-30T11:08:38;12.15;;;1.90;;
79702;SDS011;69172;52.352;5.006;2023-07-30T11:11:06;8.82;;;1.65;;
79702;SDS011;69172;52.352;5.006;2023-07-30T11:13:36;11.55;;;1.90;;
79702;SDS011;69172;52.352;5.006;2023-07-30T11:16:06;10.63;;;2.05;;
79702;SDS011;69172;52.352;5.006;2023-07-30T11:18:32;8.43;;;1.83;;
79702;SDS011;69172;52.352;5.006;2023-07-30T11:21:04;10.88;;;2.13;;
79702;SDS011;69172;52.352;5.006;2023-07-30T11:23:32;9.82;;;1.50;;
79702;SDS011;69172;52.352;5.006;2023-07-30T11:26:00;10.98;;;2.08;;
79702;SDS011;69172;52.352;5.006;2023-07-30T11:28:30;7.70;;;1.20;;
79702;SDS011;69172;52.352;5.006;2023-07-30T11:31:10;9.48;;;1.95;;
79702;SDS011;69172;52.352;5.006;2023-07-30T11:33:44;13.10;;;1.90;;
79702;SDS011;69172;52.352;5.006;2023-07-30T11:36:15;11.38;;;1.73;;
79702;SDS011;69172;52.352;5.006;2023-07-30T11:38:41;8.77;;;1.77;;
79702;SDS011;69172;52.352;5.006;2023-07-30T11:41:08;11.48;;;2.10;;
79702;SDS011;69172;52.352;5.006;2023-07-30T11:43:38;9.88;;;1.75;;
79702;SDS011;69172;52.352;5.006;2023-07-30T11:46:17;13.77;;;1.75;;
79702;SDS011;69172;52.352;5.006;2023-07-30T11:48:46;8.80;;;1.75;;
79702;SDS011;69172;52.352;5.006;2023-07-30T11:51:20;8.80;;;2.30;;
79702;SDS011;69172;52.352;5.006;2023-07-30T11:53:51;10.55;;;1.35;;
79702;SDS011;69172;52.352;5.006;2023-07-30T11:56:35;6.10;;;1.33;;
79702;SDS011;69172;52.352;5.006;2023-07-30T12:01:32;13.25;;;1.70;;
79702;SDS011;69172;52.352;5.006;2023-07-30T12:03:59;12.07;;;1.98;;
79702;SDS011;69172;52.352;5.006;2023-07-30T12:06:42;6.30;;;1.20;;
79702;SDS011;69172;52.352;5.006;2023-07-30T12:12:00;8.68;;;1.63;;
79702;SDS011;69172;52.352;5.006;2023-07-30T12:14:42;11.23;;;1.58;;
79702;SDS011;69172;52.352;5.006;2023-07-30T12:17:09;6.22;;;1.15;;
79702;SDS011;69172;52.352;5.006;2023-07-30T12:19:35;7.90;;;1.20;;
79702;SDS011;69172;52.352;5.006;2023-07-30T12:22:03;10.93;;;1.42;;
79702;SDS011;69172;52.352;5.006;2023-07-30T12:24:29;9.35;;;2.08;;
79702;SDS011;69172;52.352;5.006;2023-07-30T12:26:55;8.27;;;1.33;;
79702;SDS011;69172;52.352;5.006;2023-07-30T12:29:20;9.82;;;1.65;;
79702;SDS011;69172;52.352;5.006;2023-07-30T12:31:46;9.23;;;1.30;;
79702;SDS011;69172;52.352;5.006;2023-07-30T12:34:12;7.50;;;1.50;;
79702;SDS011;69172;52.352;5.006;2023-07-30T12:36:39;7.15;;;1.55;;
79702;SDS011;69172;52.352;5.006;2023-07-30T12:39:04;7.25;;;1.15;;
79702;SDS011;69172;52.352;5.006;2023-07-30T12:41:30;6.80;;;1.17;;
79702;SDS011;69172;52.352;5.006;2023-07-30T12:43:57;8.95;;;1.20;;
79702;SDS011;69172;52.352;5.006;2023-07-30T12:46:22;6.45;;;1.52;;
79702;SDS011;69172;52.352;5.006;2023-07-30T12:48:48;8.05;;;1.40;;
79702;SDS011;69172;52.352;5.006;2023-07-30T12:51:14;6.82;;;1.35;;
79702;SDS011;69172;52.352;5.006;2023-07-30T12:53:39;5.05;;;1.08;;
79702;SDS011;69172;52.352;5.006;2023-07-30T12:56:05;7.68;;;1.42;;
79702;SDS011;69172;52.352;5.006;2023-07-30T12:58:30;7.40;;;1.13;;
79702;SDS011;69172;52.352;5.006;2023-07-30T13:00:56;7.90;;;1.05;;
79702;SDS011;69172;52.352;5.006;2023-07-30T13:03:21;8.07;;;1.38;;
79702;SDS011;69172;52.352;5.006;2023-07-30T13:05:49;7.95;;;1.67;;
79702;SDS011;69172;52.352;5.006;2023-07-30T13:08:14;6.90;;;0.95;;
79702;SDS011;69172;52.352;5.006;2023-07-30T13:10:39;5.93;;;1.10;;
79702;SDS011;69172;52.352;5.006;2023-07-30T13:13:05;6.00;;;1.08;;
79702;SDS011;69172;52.352;5.006;2023-07-30T13:15:30;9.48;;;1.30;;
79702;SDS011;69172;52.352;5.006;2023-07-30T13:17:56;7.78;;;1.85;;
79702;SDS011;69172;52.352;5.006;2023-07-30T13:20:22;9.32;;;1.20;;
79702;SDS011;69172;52.352;5.006;2023-07-30T13:22:49;6.78;;;1.55;;
79702;SDS011;69172;52.352;5.006;2023-07-30T13:25:16;10.52;;;1.55;;
79702;SDS011;69172;52.352;5.006;2023-07-30T13:27:41;6.10;;;1.63;;
79702;SDS011;69172;52.352;5.006;2023-07-30T13:30:07;6.57;;;1.38;;
79702;SDS011;69172;52.352;5.006;2023-07-30T13:32:33;8.05;;;1.55;;
79702;SDS011;69172;52.352;5.006;2023-07-30T13:34:59;8.95;;;1.85;;
79702;SDS011;69172;52.352;5.006;2023-07-30T13:37:24;8.35;;;1.40;;
79702;SDS011;69172;52.352;5.006;2023-07-30T13:39:50;5.00;;;1.15;;
79702;SDS011;69172;52.352;5.006;2023-07-30T13:42:17;6.38;;;1.33;;
79702;SDS011;69172;52.352;5.006;2023-07-30T13:44:44;10.13;;;1.50;;
79702;SDS011;69172;52.352;5.006;2023-07-30T13:47:09;8.50;;;1.60;;
79702;SDS011;69172;52.352;5.006;2023-07-30T13:49:36;7.90;;;1.65;;
79702;SDS011;69172;52.352;5.006;2023-07-30T13:52:01;6.85;;;1.50;;
79702;SDS011;69172;52.352;5.006;2023-07-30T13:54:26;9.75;;;1.60;;
79702;SDS011;69172;52.352;5.006;2023-07-30T13:56:52;10.27;;;1.60;;
79702;SDS011;69172;52.352;5.006;2023-07-30T13:59:18;7.40;;;1.42;;
79702;SDS011;69172;52.352;5.006;2023-07-30T14:01:43;9.70;;;1.50;;
79702;SDS011;69172;52.352;5.006;2023-07-30T14:04:09;8.77;;;1.38;;
79702;SDS011;69172;52.352;5.006;2023-07-30T14:06:35;9.20;;;1.60;;
79702;SDS011;69172;52.352;5.006;2023-07-30T14:09:01;9.80;;;2.13;;
79702;SDS011;69172;52.352;5.006;2023-07-30T14:11:28;8.20;;;1.67;;
79702;SDS011;69172;52.352;5.006;2023-07-30T14:13:53;10.48;;;1.80;;
79702;SDS011;69172;52.352;5.006;2023-07-30T14:16:19;6.90;;;1.60;;
79702;SDS011;69172;52.352;5.006;2023-07-30T14:18:44;9.13;;;1.83;;
79702;SDS011;69172;52.352;5.006;2023-07-30T14:21:09;13.77;;;2.25;;
79702;SDS011;69172;52.352;5.006;2023-07-30T14:23:36;14.13;;;2.30;;
79702;SDS011;69172;52.352;5.006;2023-07-30T14:26:03;10.88;;;2.17;;
79702;SDS011;69172;52.352;5.006;2023-07-30T14:28:29;12.27;;;2.20;;
79702;SDS011;69172;52.352;5.006;2023-07-30T14:30:54;11.23;;;2.38;;
79702;SDS011;69172;52.352;5.006;2023-07-30T14:33:20;12.07;;;2.60;;
79702;SDS011;69172;52.352;5.006;2023-07-30T14:35:45;9.85;;;2.47;;
79702;SDS011;69172;52.352;5.006;2023-07-30T14:38:16;10.20;;;2.58;;
79702;SDS011;69172;52.352;5.006;2023-07-30T14:40:42;9.05;;;1.75;;
79702;SDS011;69172;52.352;5.006;2023-07-30T14:43:08;8.35;;;1.90;;
79702;SDS011;69172;52.352;5.006;2023-07-30T14:45:35;13.32;;;2.08;;